Flight Track Log - Related Links

Times and Time Zones

All times are in EDT time to prevent confusion due to time zone crossing. See the WJA129 flight status page for this flight to view local times or setup timezone preferences in your user account.

Time Position Orientation Groundspeed Altitude Reporting Facility
EDT Latitude Longitude Course Direction KTS MPH feet Rate Location/Type
Mon 09:54:28 PM 50.4000 -104.7000 286° West 20 23 2,100  Level Winnipeg Center
Mon 09:56:28 PM 50.4333 -104.8833 286° West 280 322 8,300 3,600 Climbing Winnipeg Center
Mon 09:58:00 PM 50.4568 -105.0885 290° West  Level Estimated
Mon 09:58:28 PM 50.5000 -105.1333 290° West 290 334 16,500  Level Winnipeg Center
Mon 09:59:28 PM 50.5167 -105.2333 285° West 300 345 20,300 3,350 Climbing Winnipeg Center
Mon 10:00:00 PM 50.6011 -105.5230 286° West  Level FlightAware Approximate
Mon 10:00:28 PM 50.5667 -105.3833 298° West 320 368 23,200  Level Winnipeg Center
Mon 10:01:28 PM 50.6000 -105.5167 292° West 350 403 25,300 2,000 Climbing Winnipeg Center
Mon 10:02:28 PM 50.6167 -105.6833 279° West 380 437 27,200 1,983 Climbing Winnipeg Center
Mon 10:03:23 PM 50.6333 -105.8167 281° West 400 460 29,100 1,983 Climbing Edmonton Center
Mon 10:04:23 PM 50.6667 -106.0000 286° West 410 472 31,000 2,050 Climbing Edmonton Center
Mon 10:05:23 PM 50.6833 -106.1833 278° West 420 483 33,200 2,050 Climbing Edmonton Center
Mon 10:06:23 PM 50.7167 -106.3833 285° West 410 472 35,100 1,600 Climbing Edmonton Center
Mon 10:07:23 PM 50.7500 -106.5333 289° West 420 483 36,400 1,488 Climbing Edmonton Center
Mon 10:08:28 PM 50.7833 -106.7500 284° West 420 483 38,200 1,550 Climbing Winnipeg Center
Mon 10:09:23 PM 50.8000 -106.9167 279° West 410 472 39,500 947 Climbing Edmonton Center
Mon 10:10:22 PM 50.8333 -107.0667 289° West 410 472 40,000 252 Climbing Edmonton Center
Mon 10:11:22 PM 50.8667 -107.2667 285° West 420 483 40,000  Level Edmonton Center
Mon 10:12:22 PM 50.8833 -107.4167 280° West 410 472 40,000  Level Edmonton Center
Mon 10:13:22 PM 50.9000 -107.6167 278° West 420 483 40,000  Level Edmonton Center
Mon 10:14:22 PM 50.9333 -107.8000 286° West 410 472 40,000  Level Edmonton Center
Mon 10:15:22 PM 50.9667 -107.9667 288° West 410 472 40,000  Level Edmonton Center
Mon 10:16:28 PM 51.0000 -108.2167 282° West 420 483 40,000  Level Winnipeg Center
Mon 10:17:22 PM 51.0167 -108.3500 281° West 410 472 40,000  Level Edmonton Center
Mon 10:18:23 PM 51.0500 -108.5333 286° West 420 483 40,000  Level Edmonton Center
Mon 10:19:23 PM 51.0500 -108.7000 270° West 420 483 40,000  Level Edmonton Center
Mon 10:20:23 PM 51.0833 -108.8833 286° West 420 483 40,000  Level Edmonton Center
Mon 10:21:23 PM 51.1167 -109.0500 288° West 420 483 40,000  Level Edmonton Center
Mon 10:22:23 PM 51.1333 -109.2333 278° West 400 460 40,000  Level Edmonton Center
Mon 10:23:23 PM 51.1667 -109.4333 285° West 400 460 40,000  Level Edmonton Center
Mon 10:24:23 PM 51.1667 -109.6000 270° West 400 460 40,000  Level Edmonton Center
Mon 10:25:23 PM 51.2000 -109.7833 286° West 400 460 40,000  Level Edmonton Center
Mon 10:26:23 PM 51.2333 -109.9500 288° West 400 460 40,000  Level Edmonton Center
Mon 10:27:23 PM 51.2333 -110.1500 270° West 400 460 40,000  Level Edmonton Center
Mon 10:28:23 PM 51.2500 -110.3000 280° West 390 449 40,000  Level Edmonton Center
Mon 10:29:23 PM 51.2500 -110.5000 270° West 400 460 40,000  Level Edmonton Center
Mon 10:30:23 PM 51.2500 -110.6500 270° West 390 449 40,000  Level Edmonton Center
Mon 10:31:23 PM 51.2500 -110.8500 270° West 390 449 40,000 -150 Level Edmonton Center
Mon 10:32:23 PM 51.2667 -111.0167 279° West 390 449 39,700 -500 Descending Edmonton Center
Mon 10:33:23 PM 51.2667 -111.2000 270° West 390 449 39,000 -1,500 Descending Edmonton Center
Mon 10:34:23 PM 51.2500 -111.3667 261° West 400 460 36,700 -2,800 Descending Edmonton Center
Mon 10:35:23 PM 51.2667 -111.5500 278° West 400 460 33,400 -2,800 Descending Edmonton Center
Mon 10:36:23 PM 51.2667 -111.7167 270° West 390 449 31,100 -2,450 Descending Edmonton Center
Mon 10:37:23 PM 51.2833 -111.8833 279° West 360 414 28,500 -2,200 Descending Edmonton Center
Mon 10:38:23 PM 51.2833 -112.0333 270° West 350 403 26,700 -2,050 Descending Edmonton Center
Mon 10:39:23 PM 51.2667 -112.1833 260° West 350 403 24,400 -2,100 Descending Edmonton Center
Mon 10:40:23 PM 51.2833 -112.3333 280° West 340 391 22,500 -1,800 Descending Edmonton Center
Mon 10:41:23 PM 51.2833 -112.4833 270° West 330 380 20,800 -1,750 Descending Edmonton Center
Mon 10:42:23 PM 51.2833 -112.6333 270° West 320 368 19,000 -1,800 Descending Edmonton Center
Mon 10:43:23 PM 51.2833 -112.7500 270° West 310 357 17,200 -1,700 Descending Edmonton Center
Mon 10:44:23 PM 51.2500 -112.9000 251° West 300 345 15,600 -1,550 Descending Edmonton Center
Mon 10:45:23 PM 51.2500 -113.0167 270° West 290 334 14,100 -1,500 Descending Edmonton Center
Mon 10:46:23 PM 51.2167 -113.1333 246° West 280 322 12,600 -1,300 Descending Edmonton Center
Mon 10:47:23 PM 51.2000 -113.2500 257° West 280 322 11,500 -900 Descending Edmonton Center
Mon 10:48:23 PM 51.1833 -113.3833 259° West 270 311 10,800 -750 Descending Edmonton Center
Mon 10:49:23 PM 51.1333 -113.4500 220° Southwest 260 299 10,000 -700 Descending Edmonton Center
Mon 10:50:23 PM 51.0667 -113.4667 189° South 280 322 9,400 -550 Descending Edmonton Center
Mon 10:51:23 PM 50.9833 -113.4667 180° South 290 334 8,900 -550 Descending Edmonton Center
Mon 10:52:23 PM 50.9000 -113.5333 207° Southwest 280 322 8,300 -550 Descending Edmonton Center
Mon 10:53:23 PM 50.9333 -113.6167 302° West 240 276 7,800 -550 Descending Edmonton Center
Mon 10:54:23 PM 50.9833 -113.7167 308° West 220 253 7,200 -500 Descending Edmonton Center
Mon 10:55:23 PM 51.0000 -113.7667 298° West 170 196 6,800 -550 Descending Edmonton Center
Mon 10:56:23 PM 51.0167 -113.8500 288° West 160 184 6,100 -800 Descending Edmonton Center
Mon 10:57:23 PM 51.0500 -113.9167 309° West 170 196 5,200 -850 Descending Edmonton Center
Mon 10:58:23 PM 51.0500 -113.9667 270° West 140 161 4,400 -567 Descending Edmonton Center
Mon 11:00:23 PM 51.1000 -114.0667 309° West 140 161 3,500 -450 Descending Edmonton Center

Login

Don't have an account? Register now (free) for customized features, flight alerts, and more!